createdAt,value
2019-01-26T00:02:14.753Z,12.73
2019-01-26T00:04:43.293Z,11.67
2019-01-26T00:07:12.638Z,11.87
2019-01-26T00:09:41.958Z,11.40
2019-01-26T00:12:11.303Z,11.30
2019-01-26T00:14:40.646Z,12.60
2019-01-26T00:17:09.199Z,10.90
2019-01-26T00:19:37.734Z,10.43
2019-01-26T00:22:06.163Z,10.43
2019-01-26T00:24:34.713Z,11.63
2019-01-26T00:27:03.248Z,10.67
2019-01-26T00:29:32.575Z,10.37
2019-01-26T00:32:01.917Z,9.87
2019-01-26T00:34:31.245Z,9.50
2019-01-26T00:37:00.567Z,10.30
2019-01-26T00:39:29.910Z,10.33
2019-01-26T00:41:59.216Z,8.03
2019-01-26T00:44:28.541Z,9.33
2019-01-26T00:46:57.918Z,9.33
2019-01-26T00:49:26.454Z,10.00
2019-01-26T00:51:55.786Z,9.57
2019-01-26T00:54:25.280Z,9.77
2019-01-26T00:56:54.621Z,9.73
2019-01-26T00:59:23.943Z,8.97
2019-01-26T01:01:52.452Z,9.43
2019-01-26T01:04:21.781Z,9.50
2019-01-26T01:06:51.210Z,8.53
2019-01-26T01:09:19.734Z,9.10
2019-01-26T01:11:48.263Z,9.70
2019-01-26T01:14:17.602Z,9.83
2019-01-26T01:16:46.934Z,11.33
2019-01-26T01:19:16.275Z,9.60
2019-01-26T01:21:44.855Z,10.33
2019-01-26T01:24:14.232Z,11.00
2019-01-26T01:26:43.562Z,11.63
2019-01-26T01:29:12.887Z,11.63
2019-01-26T01:31:42.224Z,13.07
2019-01-26T01:34:10.642Z,14.10
2019-01-26T01:36:39.179Z,13.00
2019-01-26T01:39:20.830Z,14.67
2019-01-26T01:41:50.135Z,14.93
2019-01-26T01:44:19.466Z,14.37
2019-01-26T01:46:48.789Z,14.07
2019-01-26T01:49:18.133Z,15.10
2019-01-26T01:51:47.467Z,15.30
2019-01-26T01:54:16.795Z,15.53
2019-01-26T01:56:46.131Z,14.10
2019-01-26T01:59:15.447Z,15.40
2019-01-26T02:01:44.780Z,13.53
2019-01-26T02:04:14.101Z,14.60
2019-01-26T02:06:42.626Z,15.20
2019-01-26T02:09:11.946Z,13.13
2019-01-26T02:11:41.279Z,13.80
2019-01-26T02:14:10.612Z,14.53
2019-01-26T02:16:39.933Z,14.30
2019-01-26T02:19:09.288Z,14.47
2019-01-26T02:21:38.614Z,14.67
2019-01-26T02:24:07.930Z,13.73
2019-01-26T02:26:37.285Z,13.23
2019-01-26T02:29:06.617Z,13.20
2019-01-26T02:31:35.160Z,14.70
2019-01-26T02:34:04.586Z,14.27
2019-01-26T02:36:34.002Z,13.90
2019-01-26T02:39:06.209Z,14.07
2019-01-26T02:41:34.738Z,14.30
2019-01-26T02:44:04.412Z,15.60
2019-01-26T02:46:33.744Z,14.90
2019-01-26T02:49:03.170Z,15.67
2019-01-26T02:51:32.496Z,13.97
2019-01-26T02:54:01.822Z,14.70
2019-01-26T02:56:31.160Z,15.10
2019-01-26T02:58:59.686Z,14.90
2019-01-26T03:01:29.017Z,15.47
2019-01-26T03:03:57.559Z,16.17
2019-01-26T03:06:25.962Z,15.00
2019-01-26T03:08:55.295Z,14.63
2019-01-26T03:11:24.050Z,15.43
2019-01-26T03:13:53.387Z,13.13
2019-01-26T03:16:22.706Z,14.60
2019-01-26T03:18:52.071Z,14.37
2019-01-26T03:21:21.386Z,13.93
2019-01-26T03:23:50.718Z,13.43
2019-01-26T03:26:19.154Z,14.80
2019-01-26T03:28:48.474Z,13.00
2019-01-26T03:31:16.911Z,15.93
2019-01-26T03:33:46.229Z,13.47
2019-01-26T03:36:15.542Z,13.63
2019-01-26T03:38:44.856Z,14.03
2019-01-26T03:41:14.184Z,13.90
2019-01-26T03:43:42.614Z,14.00
2019-01-26T03:46:11.937Z,13.17
2019-01-26T03:48:40.458Z,13.33
2019-01-26T03:51:08.901Z,14.43
2019-01-26T03:53:38.243Z,14.00
2019-01-26T03:56:07.672Z,14.73
2019-01-26T03:58:37.087Z,13.70
2019-01-26T04:01:05.525Z,14.33
2019-01-26T04:03:34.947Z,13.77
2019-01-26T04:06:04.285Z,14.13
2019-01-26T04:08:33.605Z,13.50
2019-01-26T04:11:02.138Z,14.97
2019-01-26T04:13:30.642Z,14.10
2019-01-26T04:15:59.974Z,13.73
2019-01-26T04:18:29.279Z,15.03
2019-01-26T04:20:58.615Z,14.50
2019-01-26T04:23:27.931Z,14.17
2019-01-26T04:25:57.267Z,14.03
2019-01-26T04:28:26.612Z,15.40
2019-01-26T04:30:55.927Z,15.27
2019-01-26T04:33:25.243Z,14.00
2019-01-26T04:35:54.588Z,15.37
2019-01-26T04:38:23.921Z,14.07
2019-01-26T04:40:53.266Z,15.70
2019-01-26T04:43:21.692Z,14.73
2019-01-26T04:45:51.011Z,14.37
2019-01-26T04:48:20.344Z,17.33
2019-01-26T04:50:49.677Z,16.60
2019-01-26T04:53:19.008Z,16.17
2019-01-26T04:55:47.542Z,15.60
2019-01-26T04:58:16.862Z,15.70
2019-01-26T05:00:45.282Z,15.27
2019-01-26T05:03:14.606Z,16.37
2019-01-26T05:05:43.027Z,16.63
2019-01-26T05:08:12.350Z,14.53
2019-01-26T05:10:41.682Z,16.23
2019-01-26T05:13:11.024Z,14.57
2019-01-26T05:15:40.459Z,15.47
2019-01-26T05:18:08.990Z,14.27
2019-01-26T05:20:38.334Z,15.13
2019-01-26T05:23:06.862Z,16.23
2019-01-26T05:25:35.431Z,18.30
2019-01-26T05:28:04.841Z,19.17
2019-01-26T05:30:34.158Z,17.20
2019-01-26T05:33:04.321Z,17.80
2019-01-26T05:35:33.644Z,18.07
2019-01-26T05:38:02.976Z,19.53
2019-01-26T05:40:32.402Z,25.50
2019-01-26T05:43:01.750Z,28.23
2019-01-26T05:45:31.211Z,26.57
2019-01-26T05:48:00.549Z,24.90
2019-01-26T05:50:28.977Z,25.37
2019-01-26T05:52:57.530Z,23.83
2019-01-26T05:55:26.072Z,22.87
2019-01-26T05:57:55.389Z,22.93
2019-01-26T06:00:31.635Z,22.20
2019-01-26T06:03:00.264Z,20.20
2019-01-26T06:05:28.687Z,19.10
2019-01-26T06:07:58.146Z,18.07
2019-01-26T06:10:27.481Z,15.97
2019-01-26T06:12:55.925Z,15.13
2019-01-26T06:15:43.234Z,15.40
2019-01-26T06:18:12.697Z,15.20
2019-01-26T06:20:42.014Z,15.00
2019-01-26T06:23:10.576Z,14.87
2019-01-26T06:25:39.106Z,16.13
2019-01-26T06:28:08.446Z,16.23
2019-01-26T06:30:37.771Z,15.67
2019-01-26T06:36:09.636Z,14.40
2019-01-26T06:38:38.963Z,12.70
2019-01-26T06:41:08.286Z,12.90
2019-01-26T06:43:37.620Z,13.10
2019-01-26T06:46:06.939Z,12.17
2019-01-26T06:48:36.264Z,12.90
2019-01-26T06:51:04.693Z,13.17
2019-01-26T06:53:33.240Z,13.60
2019-01-26T06:56:02.621Z,13.73
2019-01-26T06:58:32.151Z,14.90
2019-01-26T07:01:20.377Z,15.43
2019-01-26T07:03:49.726Z,15.37
2019-01-26T07:06:26.755Z,14.70
2019-01-26T07:08:56.097Z,15.27
2019-01-26T07:11:24.515Z,16.47
2019-01-26T07:13:53.042Z,17.03
2019-01-26T07:19:18.380Z,16.27
2019-01-26T07:21:47.702Z,16.27
2019-01-26T07:24:17.047Z,12.13
2019-01-26T07:26:45.619Z,12.83
2019-01-26T07:29:14.147Z,13.93
2019-01-26T07:31:43.462Z,11.50
2019-01-26T07:34:12.781Z,12.50
2019-01-26T07:36:41.214Z,13.97
2019-01-26T07:39:10.594Z,15.57
2019-01-26T07:41:39.863Z,13.00
2019-01-26T07:44:08.287Z,13.63
2019-01-26T07:46:36.806Z,14.67
2019-01-26T07:49:06.129Z,13.40
2019-01-26T07:51:34.625Z,16.90
2019-01-26T07:57:06.547Z,19.57
2019-01-26T07:59:35.190Z,19.13
2019-01-26T08:02:03.832Z,25.27
2019-01-26T08:04:33.175Z,28.60
2019-01-26T08:07:02.605Z,28.00
2019-01-26T08:09:31.940Z,27.87
2019-01-26T08:12:00.383Z,23.20
2019-01-26T08:14:28.938Z,21.73
2019-01-26T08:16:58.267Z,19.67
2019-01-26T08:19:26.731Z,19.73
2019-01-26T08:21:55.267Z,21.93
2019-01-26T08:24:24.591Z,22.07
2019-01-26T08:26:53.918Z,21.50
2019-01-26T08:29:23.257Z,27.93
2019-01-26T08:31:52.592Z,31.80
2019-01-26T08:34:21.127Z,35.50
2019-01-26T08:36:49.583Z,31.80
2019-01-26T08:39:18.933Z,33.10
2019-01-26T08:41:47.465Z,31.67
2019-01-26T08:44:15.886Z,26.27
2019-01-26T08:46:45.223Z,30.00
2019-01-26T08:49:13.674Z,34.00
2019-01-26T08:51:42.992Z,28.50
2019-01-26T08:54:12.355Z,22.63
2019-01-26T08:56:41.680Z,19.00
2019-01-26T08:59:11.008Z,19.77
2019-01-26T09:01:39.558Z,21.13
2019-01-26T09:04:28.375Z,19.67
2019-01-26T09:07:02.690Z,19.57
2019-01-26T09:09:31.128Z,16.10
2019-01-26T09:11:59.658Z,14.50
2019-01-26T09:14:28.990Z,17.37
2019-01-26T09:16:58.323Z,17.73
2019-01-26T09:19:27.653Z,17.13
2019-01-26T09:21:56.981Z,15.50
2019-01-26T09:24:26.298Z,18.00
2019-01-26T09:26:55.633Z,16.70
2019-01-26T09:29:24.059Z,15.47
2019-01-26T09:31:52.514Z,13.50
2019-01-26T09:34:21.851Z,15.67
2019-01-26T09:36:51.167Z,14.53
2019-01-26T09:39:20.504Z,17.30
2019-01-26T09:41:49.827Z,24.17
2019-01-26T09:44:19.170Z,25.13
2019-01-26T09:46:48.509Z,32.37
2019-01-26T09:49:17.040Z,26.20
2019-01-26T09:51:46.393Z,27.07
2019-01-26T09:54:14.834Z,25.93
2019-01-26T09:56:43.278Z,21.30
2019-01-26T09:59:13.678Z,17.47
2019-01-26T10:02:01.848Z,18.13
2019-01-26T10:04:31.189Z,13.63
2019-01-26T10:06:59.706Z,13.20
2019-01-26T10:09:29.043Z,12.83
2019-01-26T10:11:58.387Z,13.10
2019-01-26T10:14:26.812Z,15.40
2019-01-26T10:16:55.244Z,23.03
2019-01-26T10:19:24.591Z,27.67
2019-01-26T10:21:53.921Z,27.50
2019-01-26T10:24:23.267Z,28.23
2019-01-26T10:26:52.607Z,27.73
2019-01-26T10:29:21.951Z,24.13
2019-01-26T10:31:51.284Z,15.17
2019-01-26T10:34:20.623Z,17.87
2019-01-26T10:37:10.002Z,14.00
2019-01-26T10:39:38.644Z,13.40
2019-01-26T10:42:26.731Z,13.23
2019-01-26T10:44:55.377Z,11.77
2019-01-26T10:47:24.711Z,12.30
2019-01-26T10:49:54.043Z,12.47
2019-01-26T10:52:23.378Z,12.30
2019-01-26T10:54:52.777Z,11.97
2019-01-26T10:57:21.208Z,11.97
2019-01-26T10:59:49.651Z,14.17
2019-01-26T11:02:18.093Z,13.90
2019-01-26T11:04:47.426Z,21.20
2019-01-26T11:07:16.756Z,27.37
2019-01-26T11:09:46.187Z,25.60
2019-01-26T11:12:15.632Z,22.40
2019-01-26T11:14:44.986Z,28.77
2019-01-26T11:17:14.345Z,27.00
2019-01-26T11:19:43.871Z,26.77
2019-01-26T11:22:13.212Z,23.37
2019-01-26T11:24:41.688Z,24.47
2019-01-26T11:27:10.124Z,28.87
2019-01-26T11:29:39.467Z,30.07
2019-01-26T11:32:08.789Z,28.03
2019-01-26T11:34:38.143Z,30.70
2019-01-26T11:37:07.473Z,35.97
2019-01-26T11:42:15.837Z,29.13
2019-01-26T11:45:04.684Z,21.77
2019-01-26T11:47:34.044Z,20.37
2019-01-26T11:53:06.156Z,16.93
2019-01-26T11:55:54.261Z,15.80
2019-01-26T11:58:22.759Z,14.70
2019-01-26T12:01:11.547Z,15.03
2019-01-26T12:03:59.537Z,15.27
2019-01-26T12:06:41.397Z,12.97
2019-01-26T12:12:06.336Z,17.10
2019-01-26T12:14:35.657Z,17.97
2019-01-26T12:17:04.076Z,18.27
2019-01-26T12:19:33.432Z,17.67
2019-01-26T12:22:02.753Z,18.10
2019-01-26T12:24:32.144Z,17.20
2019-01-26T12:27:00.594Z,17.70
2019-01-26T12:29:30.027Z,17.80
2019-01-26T12:31:59.399Z,18.93
2019-01-26T12:34:28.727Z,18.47
2019-01-26T12:36:57.350Z,21.37
2019-01-26T12:39:25.776Z,20.90
2019-01-26T12:41:55.106Z,24.87
2019-01-26T12:44:24.427Z,26.90
2019-01-26T12:46:53.761Z,29.73
2019-01-26T12:49:29.333Z,30.93
2019-01-26T12:52:12.359Z,24.10
2019-01-26T12:54:41.101Z,21.07
2019-01-26T13:06:28.298Z,24.90
2019-01-26T13:08:56.728Z,23.60
2019-01-26T13:11:27.943Z,18.90
2019-01-26T13:13:56.616Z,19.50
2019-01-26T13:16:25.976Z,18.47
2019-01-26T13:18:55.424Z,15.50
2019-01-26T13:21:24.860Z,16.33
2019-01-26T13:23:54.203Z,16.17
2019-01-26T13:26:23.526Z,15.90
2019-01-26T13:28:52.839Z,15.50
2019-01-26T13:31:21.270Z,16.73
2019-01-26T13:33:49.795Z,16.50
2019-01-26T13:36:18.336Z,15.83
2019-01-26T13:38:46.956Z,15.07
2019-01-26T13:44:30.862Z,11.30
2019-01-26T13:50:02.292Z,16.63
2019-01-26T13:52:30.719Z,16.83
2019-01-26T13:54:59.144Z,18.37
2019-01-26T13:57:28.579Z,20.00
2019-01-26T13:59:57.899Z,20.63
2019-01-26T14:02:27.241Z,18.47
2019-01-26T14:04:56.784Z,17.90
2019-01-26T14:07:25.440Z,17.23
2019-01-26T14:12:55.771Z,20.23
2019-01-26T14:15:24.396Z,19.10
2019-01-26T14:17:53.740Z,21.13
2019-01-26T14:23:06.119Z,18.30
2019-01-26T14:25:34.541Z,18.17
2019-01-26T14:28:04.287Z,19.83
2019-01-26T14:30:38.791Z,19.77
2019-01-26T14:33:07.525Z,18.37
2019-01-26T14:35:36.948Z,20.50
2019-01-26T14:38:06.378Z,20.03
2019-01-26T14:40:34.798Z,18.67
2019-01-26T14:43:04.371Z,17.27
2019-01-26T14:45:33.694Z,16.60
2019-01-26T14:48:03.345Z,15.07
2019-01-26T14:50:32.667Z,15.60
2019-01-26T14:53:01.192Z,15.50
2019-01-26T14:55:30.844Z,14.07
2019-01-26T14:58:00.353Z,15.77
2019-01-26T15:00:31.286Z,15.17
2019-01-26T15:03:00.064Z,14.83
2019-01-26T15:05:29.593Z,15.53
2019-01-26T15:07:59.377Z,14.83
2019-01-26T15:10:28.050Z,15.00
2019-01-26T15:12:57.476Z,15.07
2019-01-26T15:15:26.812Z,13.80
2019-01-26T15:17:56.133Z,14.63
2019-01-26T15:20:30.956Z,14.97
2019-01-26T15:22:59.673Z,15.30
2019-01-26T15:25:28.295Z,15.23
2019-01-26T15:27:57.628Z,15.37
2019-01-26T15:30:29.256Z,14.57
2019-01-26T15:35:59.578Z,14.03
2019-01-26T15:38:28.010Z,14.80
2019-01-26T15:40:57.333Z,16.47
2019-01-26T15:43:26.668Z,16.47
2019-01-26T15:45:55.997Z,19.00
2019-01-26T15:48:25.327Z,18.67
2019-01-26T15:50:54.660Z,19.23
2019-01-26T15:53:23.996Z,18.10
2019-01-26T15:55:53.402Z,16.23
2019-01-26T15:58:22.750Z,16.50
2019-01-26T16:00:51.193Z,15.30
2019-01-26T16:06:03.335Z,16.40
2019-01-26T16:08:31.968Z,17.57
2019-01-26T16:11:00.387Z,17.97
2019-01-26T16:13:29.908Z,20.30
2019-01-26T16:15:59.235Z,18.63
2019-01-26T16:18:28.559Z,16.90
2019-01-26T16:23:41.240Z,19.90
2019-01-26T16:26:10.609Z,19.17
2019-01-26T16:28:39.931Z,19.87
2019-01-26T16:31:08.368Z,19.60
2019-01-26T16:33:37.704Z,17.93
2019-01-26T16:36:07.017Z,17.37
2019-01-26T16:38:36.341Z,18.00
2019-01-26T16:41:05.916Z,18.23
2019-01-26T16:43:34.435Z,20.03
2019-01-26T16:46:04.179Z,19.63
2019-01-26T16:48:32.816Z,19.37
2019-01-26T16:51:02.156Z,19.80
2019-01-26T16:53:31.638Z,19.40
2019-01-26T16:56:00.977Z,18.60
2019-01-26T16:58:30.315Z,16.90
2019-01-26T17:01:00.737Z,17.97
2019-01-26T17:03:29.261Z,18.40
2019-01-26T17:05:58.607Z,19.13
2019-01-26T17:08:27.928Z,18.50
2019-01-26T17:10:56.381Z,17.57
2019-01-26T17:13:24.896Z,18.67
2019-01-26T17:18:56.609Z,19.17
2019-01-26T17:21:36.896Z,18.80
2019-01-26T17:27:07.996Z,20.23
2019-01-26T17:29:37.317Z,20.30
2019-01-26T17:32:06.787Z,18.80
2019-01-26T17:34:35.752Z,22.20
2019-01-26T17:37:05.158Z,21.47
2019-01-26T17:39:33.693Z,22.00
2019-01-26T17:42:03.032Z,22.57
2019-01-26T17:44:32.350Z,22.27
2019-01-26T17:47:01.679Z,21.10
2019-01-26T17:49:31.023Z,22.27
2019-01-26T17:51:59.444Z,22.63
2019-01-26T17:54:27.873Z,23.83
2019-01-26T17:56:57.191Z,25.17
2019-01-26T17:59:26.535Z,23.00
2019-01-26T18:01:55.855Z,23.27
2019-01-26T18:04:25.197Z,23.27
2019-01-26T18:06:54.531Z,22.63
2019-01-26T18:09:23.854Z,23.70
2019-01-26T18:11:53.283Z,22.30
2019-01-26T18:14:22.614Z,23.10
2019-01-26T18:16:51.046Z,20.80
2019-01-26T18:19:19.473Z,20.10
2019-01-26T18:21:47.930Z,20.60
2019-01-26T18:24:17.349Z,19.40
2019-01-26T18:26:46.676Z,19.27
2019-01-26T18:29:16.034Z,17.23
2019-01-26T18:31:45.413Z,20.10
2019-01-26T18:34:14.744Z,20.13
2019-01-26T18:36:44.165Z,20.17
2019-01-26T18:39:12.625Z,19.03
2019-01-26T18:41:41.097Z,18.77
2019-01-26T18:44:09.513Z,19.03
2019-01-26T18:46:38.837Z,18.50
2019-01-26T18:49:08.165Z,19.20
2019-01-26T18:51:37.508Z,19.33
2019-01-26T18:57:03.095Z,19.97
2019-01-26T18:59:31.716Z,19.90
2019-01-26T19:02:01.075Z,18.57
2019-01-26T19:04:40.747Z,18.60
2019-01-26T19:07:10.085Z,19.33
2019-01-26T19:09:38.685Z,19.70
2019-01-26T19:12:08.052Z,17.53
2019-01-26T19:14:37.372Z,19.00
2019-01-26T19:17:05.796Z,18.70
2019-01-26T19:19:34.341Z,18.43
2019-01-26T19:22:02.775Z,19.60
2019-01-26T19:24:32.102Z,18.00
2019-01-26T19:27:01.460Z,19.43
2019-01-26T19:29:30.886Z,19.37
2019-01-26T19:31:59.409Z,18.13
2019-01-26T19:34:28.756Z,18.47
2019-01-26T19:36:58.079Z,17.20
2019-01-26T19:39:26.616Z,15.40
2019-01-26T19:41:55.041Z,16.03
2019-01-26T19:44:24.363Z,17.57
2019-01-26T19:46:53.702Z,15.70
2019-01-26T19:49:23.139Z,17.17
2019-01-26T19:51:52.473Z,15.47
2019-01-26T19:54:21.791Z,15.87
2019-01-26T19:56:51.325Z,16.00
2019-01-26T19:59:20.654Z,15.80
2019-01-26T20:01:50.108Z,17.47
2019-01-26T20:04:19.424Z,16.63
2019-01-26T20:06:47.953Z,16.97
2019-01-26T20:12:12.068Z,16.47
2019-01-26T20:14:40.709Z,14.97
2019-01-26T20:17:10.052Z,16.33
2019-01-26T20:19:39.526Z,16.47
2019-01-26T20:22:08.084Z,16.43
2019-01-26T20:24:36.617Z,15.37
2019-01-26T20:27:05.943Z,16.53
2019-01-26T20:29:35.274Z,15.93
2019-01-26T20:32:04.728Z,14.73
2019-01-26T20:37:36.589Z,16.17
2019-01-26T20:40:07.719Z,15.57
2019-01-26T20:42:39.135Z,16.23
2019-01-26T20:45:10.680Z,14.10
2019-01-26T20:47:39.459Z,14.13
2019-01-26T20:50:09.352Z,15.07
2019-01-26T20:52:37.883Z,15.17
2019-01-26T20:55:07.966Z,16.17
2019-01-26T20:57:37.551Z,15.57
2019-01-26T21:00:19.832Z,15.00
2019-01-26T21:02:48.263Z,14.00
2019-01-26T21:05:17.692Z,15.43
2019-01-26T21:07:47.138Z,16.03
2019-01-26T21:10:21.393Z,14.40
2019-01-26T21:12:50.283Z,15.03
2019-01-26T21:15:18.863Z,16.10
2019-01-26T21:17:48.204Z,14.67
2019-01-26T21:20:17.868Z,14.77
2019-01-26T21:22:47.396Z,15.83
2019-01-26T21:25:16.737Z,15.13
2019-01-26T21:27:45.470Z,14.83
2019-01-26T21:30:16.875Z,15.37
2019-01-26T21:32:45.524Z,16.37
2019-01-26T21:35:14.368Z,15.73
2019-01-26T21:37:42.990Z,16.17
2019-01-26T21:40:15.422Z,15.40
2019-01-26T21:42:43.953Z,15.13
2019-01-26T21:48:15.403Z,15.80
2019-01-26T21:50:43.950Z,15.60
2019-01-26T21:53:13.270Z,14.80
2019-01-26T21:55:42.693Z,14.80
2019-01-26T21:58:12.107Z,15.90
2019-01-26T22:00:41.469Z,13.70
2019-01-26T22:03:11.106Z,15.10
2019-01-26T22:05:40.455Z,15.30
2019-01-26T22:08:10.032Z,15.63
2019-01-26T22:10:39.364Z,15.60
2019-01-26T22:13:08.787Z,14.73
2019-01-26T22:15:37.380Z,16.87
2019-01-26T22:18:05.806Z,15.77
2019-01-26T22:20:35.155Z,15.63
2019-01-26T22:23:04.670Z,15.30
2019-01-26T22:28:36.852Z,16.20
2019-01-26T22:31:05.373Z,16.20
2019-01-26T22:33:34.704Z,14.77
2019-01-26T22:36:04.156Z,16.03
2019-01-26T22:38:33.497Z,14.80
2019-01-26T22:41:02.933Z,15.50
2019-01-26T22:43:32.250Z,14.97
2019-01-26T22:46:01.610Z,16.63
2019-01-26T22:48:30.931Z,15.43
2019-01-26T22:51:00.313Z,15.23
2019-01-26T22:53:28.747Z,16.37
2019-01-26T22:55:57.187Z,15.97
2019-01-26T22:58:26.510Z,15.67
2019-01-26T23:01:23.680Z,14.07
2019-01-26T23:04:31.804Z,14.93
2019-01-26T23:07:27.997Z,15.90
2019-01-26T23:10:35.256Z,15.43
2019-01-26T23:13:25.371Z,14.90
2019-01-26T23:16:33.420Z,15.37
2019-01-26T23:19:15.351Z,15.00
2019-01-26T23:22:23.456Z,15.60
2019-01-26T23:25:30.600Z,15.67
2019-01-26T23:28:31.149Z,15.77
2019-01-26T23:31:19.627Z,16.07
2019-01-26T23:33:50.672Z,16.60
2019-01-26T23:36:20.094Z,15.50
2019-01-26T23:38:49.460Z,16.17
2019-01-26T23:41:19.040Z,16.70
2019-01-26T23:43:48.493Z,16.77
2019-01-26T23:46:17.810Z,17.37
2019-01-26T23:48:47.255Z,18.03
2019-01-26T23:51:15.774Z,16.83
2019-01-26T23:53:44.212Z,17.33
2019-01-26T23:56:13.528Z,16.43
2019-01-26T23:58:42.196Z,17.03
